createdAt,value
2018-09-06T00:04:14.034Z,8.07
2018-09-06T00:09:10.110Z,6.10
2018-09-06T00:14:05.154Z,5.77
2018-09-06T00:18:59.962Z,6.87
2018-09-06T00:23:54.793Z,7.10
2018-09-06T00:28:49.593Z,4.70
2018-09-06T00:33:44.405Z,8.47
2018-09-06T00:38:39.287Z,6.23
2018-09-06T00:43:34.105Z,6.50
2018-09-06T00:48:28.986Z,5.70
2018-09-06T00:53:23.767Z,5.47
2018-09-06T00:58:18.561Z,6.10
2018-09-06T01:03:13.357Z,6.03
2018-09-06T01:08:08.236Z,6.13
2018-09-06T01:13:03.021Z,6.50
2018-09-06T01:17:57.793Z,5.07
2018-09-06T01:22:52.607Z,6.17
2018-09-06T01:27:47.415Z,6.30
2018-09-06T01:32:42.256Z,7.40
2018-09-06T01:37:37.064Z,7.30
2018-09-06T01:42:31.921Z,7.70
2018-09-06T01:47:26.773Z,7.83
2018-09-06T01:52:21.546Z,6.63
2018-09-06T01:57:16.316Z,6.27
2018-09-06T02:02:11.106Z,7.20
2018-09-06T02:07:06.447Z,7.13
2018-09-06T02:12:01.239Z,6.93
2018-09-06T02:16:56.158Z,10.63
2018-09-06T02:21:50.994Z,8.00
2018-09-06T02:26:45.731Z,7.13
2018-09-06T02:31:40.629Z,7.80
2018-09-06T02:36:35.413Z,7.93
2018-09-06T02:41:30.255Z,6.90
2018-09-06T02:46:25.174Z,7.60
2018-09-06T02:51:21.012Z,6.73
2018-09-06T02:56:16.510Z,7.10
2018-09-06T03:01:11.474Z,8.67
2018-09-06T03:06:06.637Z,7.60
2018-09-06T03:11:21.885Z,10.63
2018-09-06T03:16:16.800Z,6.80
2018-09-06T03:21:11.585Z,7.10
2018-09-06T03:26:11.522Z,7.57
2018-09-06T03:31:06.309Z,8.87
2018-09-06T03:36:01.114Z,8.20
2018-09-06T03:40:58.793Z,6.93
2018-09-06T03:45:53.573Z,9.40
2018-09-06T03:50:48.377Z,10.97
2018-09-06T03:55:43.137Z,7.90
2018-09-06T04:00:37.893Z,7.30
2018-09-06T04:05:32.690Z,10.67
2018-09-06T04:10:27.489Z,6.97
2018-09-06T04:15:22.257Z,9.13
2018-09-06T04:20:17.121Z,8.23
2018-09-06T04:25:11.877Z,7.83
2018-09-06T04:30:06.773Z,8.30
2018-09-06T04:35:01.559Z,8.97
2018-09-06T04:39:56.348Z,8.87
2018-09-06T04:44:51.130Z,9.67
2018-09-06T04:49:46.001Z,9.13
2018-09-06T04:54:40.800Z,9.70
2018-09-06T04:59:35.630Z,10.57
2018-09-06T05:04:30.524Z,8.90
2018-09-06T05:09:25.323Z,9.40
2018-09-06T05:14:20.075Z,9.17
2018-09-06T05:19:14.865Z,8.13
2018-09-06T05:24:09.657Z,9.97
2018-09-06T05:29:04.475Z,11.90
2018-09-06T05:33:59.293Z,9.47
2018-09-06T05:38:54.101Z,13.17
2018-09-06T05:43:48.908Z,9.20
2018-09-06T05:48:43.777Z,9.60
2018-09-06T05:53:38.537Z,9.40
2018-09-06T05:58:33.369Z,9.67
2018-09-06T06:03:28.234Z,11.73
2018-09-06T06:08:42.628Z,10.10
2018-09-06T06:13:37.552Z,13.83
2018-09-06T06:18:32.341Z,8.70
2018-09-06T06:23:27.094Z,9.93
2018-09-06T06:28:21.921Z,8.53
2018-09-06T06:33:16.798Z,8.40
2018-09-06T06:38:11.593Z,10.33
2018-09-06T06:43:06.408Z,8.83
2018-09-06T06:48:07.772Z,11.73
2018-09-06T06:53:02.534Z,9.53
2018-09-06T06:57:57.298Z,12.57
2018-09-06T07:02:52.702Z,12.27
2018-09-06T07:07:47.862Z,13.17
2018-09-06T07:12:42.680Z,13.13
2018-09-06T07:17:37.443Z,14.37
2018-09-06T07:22:32.237Z,13.67
2018-09-06T07:27:27.037Z,14.43
2018-09-06T07:32:22.026Z,21.27
2018-09-06T07:37:16.913Z,21.53
2018-09-06T07:42:11.767Z,17.80
2018-09-06T07:47:06.662Z,19.43
2018-09-06T07:52:01.562Z,15.87
2018-09-06T07:56:56.408Z,17.80
2018-09-06T08:01:51.296Z,16.97
2018-09-06T08:06:46.193Z,16.83
2018-09-06T08:11:41.544Z,18.17
2018-09-06T08:16:36.777Z,16.40
2018-09-06T08:21:31.655Z,18.40
2018-09-06T08:26:26.947Z,15.37
2018-09-06T08:31:21.820Z,15.27
2018-09-06T08:36:16.648Z,15.60
2018-09-06T08:41:11.447Z,15.07
2018-09-06T08:46:06.292Z,15.83
2018-09-06T08:51:01.087Z,14.93
2018-09-06T08:55:56.030Z,10.87
2018-09-06T09:00:55.850Z,13.30
2018-09-06T09:05:50.697Z,12.47
2018-09-06T09:10:45.505Z,11.33
2018-09-06T09:15:40.277Z,14.00
2018-09-06T09:20:35.104Z,11.10
2018-09-06T09:25:29.949Z,12.93
2018-09-06T09:30:24.801Z,12.63
2018-09-06T09:35:19.606Z,9.83
2018-09-06T09:40:14.477Z,12.10
2018-09-06T09:45:09.328Z,9.18
2018-09-06T09:50:04.188Z,8.43
2018-09-06T09:54:59.021Z,9.90
2018-09-06T09:59:53.835Z,12.37
2018-09-06T10:04:53.760Z,10.33
2018-09-06T10:09:48.634Z,12.18
2018-09-06T10:14:43.455Z,11.68
2018-09-06T10:19:38.284Z,8.68
2018-09-06T10:24:33.211Z,12.73
2018-09-06T10:29:28.046Z,12.27
2018-09-06T10:34:23.090Z,9.47
2018-09-06T10:39:18.140Z,10.70
2018-09-06T10:44:13.084Z,13.08
2018-09-06T10:49:07.888Z,9.88
2018-09-06T10:54:02.676Z,10.53
2018-09-06T10:58:57.593Z,9.75
2018-09-06T11:03:54.927Z,11.45
2018-09-06T11:08:49.924Z,11.30
2018-09-06T11:13:44.793Z,9.45
2018-09-06T11:18:39.869Z,7.30
2018-09-06T11:23:34.790Z,7.12
2018-09-06T11:28:29.653Z,7.20
2018-09-06T11:33:24.722Z,7.42
2018-09-06T11:38:19.681Z,5.33
2018-09-06T11:43:16.552Z,5.25
2018-09-06T11:48:11.569Z,5.47
2018-09-06T11:53:06.542Z,5.65
2018-09-06T11:58:01.512Z,5.65
2018-09-06T12:02:56.410Z,5.30
2018-09-06T12:07:51.303Z,6.03
2018-09-06T12:12:46.291Z,5.25
2018-09-06T12:17:41.154Z,5.90
2018-09-06T12:22:36.079Z,5.17
2018-09-06T12:27:31.014Z,6.00
2018-09-06T12:32:25.963Z,7.20
2018-09-06T12:37:20.913Z,5.30
2018-09-06T12:42:15.842Z,5.35
2018-09-06T12:47:10.816Z,6.17
2018-09-06T12:52:05.832Z,5.10
2018-09-06T12:57:00.734Z,4.55
2018-09-06T13:01:55.662Z,10.43
2018-09-06T13:06:50.561Z,8.65
2018-09-06T13:11:45.439Z,5.65
2018-09-06T13:16:40.426Z,7.97
2018-09-06T13:21:35.361Z,5.87
2018-09-06T13:26:30.390Z,5.75
2018-09-06T13:31:25.380Z,6.10
2018-09-06T13:36:20.291Z,5.92
2018-09-06T13:41:15.177Z,5.83
2018-09-06T13:46:10.185Z,5.12
2018-09-06T13:51:05.683Z,5.83
2018-09-06T13:56:00.605Z,5.80
2018-09-06T14:00:55.505Z,6.22
2018-09-06T14:05:50.505Z,4.80
2018-09-06T14:10:45.389Z,3.77
2018-09-06T14:15:40.279Z,4.67
2018-09-06T14:20:35.244Z,3.92
2018-09-06T14:25:30.120Z,3.47
2018-09-06T14:30:25.090Z,4.15
2018-09-06T14:35:20.036Z,3.92
2018-09-06T14:40:14.897Z,3.60
2018-09-06T14:45:09.830Z,5.80
2018-09-06T14:50:04.866Z,4.72
2018-09-06T14:54:59.720Z,5.17
2018-09-06T14:59:54.578Z,4.33
2018-09-06T15:04:49.494Z,5.50
2018-09-06T15:09:44.402Z,4.53
2018-09-06T15:14:39.282Z,4.25
2018-09-06T15:19:34.069Z,4.05
2018-09-06T15:24:28.874Z,3.83
2018-09-06T15:29:23.942Z,4.35
2018-09-06T15:34:18.729Z,4.75
2018-09-06T15:39:13.480Z,4.30
2018-09-06T15:44:08.733Z,4.87
2018-09-06T15:49:03.557Z,8.20
2018-09-06T15:53:58.355Z,6.23
2018-09-06T15:58:53.158Z,4.07
2018-09-06T16:03:47.991Z,4.47
2018-09-06T16:08:44.336Z,4.50
2018-09-06T16:13:39.338Z,4.72
2018-09-06T16:18:34.310Z,3.47
2018-09-06T16:23:29.268Z,3.83
2018-09-06T16:28:24.126Z,4.25
2018-09-06T16:33:19.065Z,4.33
2018-09-06T16:38:13.898Z,4.35
2018-09-06T16:43:09.741Z,3.73
2018-09-06T16:48:04.649Z,4.27
2018-09-06T16:52:59.480Z,3.58
2018-09-06T16:57:54.277Z,5.17
2018-09-06T17:02:49.104Z,3.97
2018-09-06T17:07:43.996Z,4.83
2018-09-06T17:12:38.856Z,3.67
2018-09-06T17:17:33.660Z,16.93
2018-09-06T17:22:28.661Z,4.77
2018-09-06T17:27:23.536Z,4.30
2018-09-06T17:32:18.475Z,6.50
2018-09-06T17:37:13.258Z,3.47
2018-09-06T17:42:08.392Z,4.20
2018-09-06T17:47:03.295Z,3.70
2018-09-06T17:51:58.100Z,3.87
2018-09-06T17:56:52.972Z,3.87
2018-09-06T18:01:47.882Z,4.60
2018-09-06T18:06:42.821Z,2.83
2018-09-06T18:11:37.806Z,2.97
2018-09-06T18:16:32.816Z,4.47
2018-09-06T18:21:27.810Z,4.70
2018-09-06T18:26:22.809Z,3.87
2018-09-06T18:31:17.700Z,3.97
2018-09-06T18:36:12.609Z,3.60
2018-09-06T18:41:07.546Z,3.93
2018-09-06T18:46:02.414Z,4.77
2018-09-06T18:50:57.288Z,4.50
2018-09-06T18:55:52.137Z,7.23
2018-09-06T19:00:46.945Z,3.83
2018-09-06T19:05:41.806Z,4.23
2018-09-06T19:10:36.590Z,5.87
2018-09-06T19:15:31.453Z,4.67
2018-09-06T19:20:26.214Z,5.70
2018-09-06T19:25:21.107Z,5.30
2018-09-06T19:30:16.001Z,6.60
2018-09-06T19:35:10.813Z,4.80
2018-09-06T19:40:05.762Z,4.77
2018-09-06T19:45:00.700Z,5.50
2018-09-06T19:49:55.484Z,4.53
2018-09-06T19:54:50.677Z,4.50
2018-09-06T19:59:45.596Z,4.90
2018-09-06T20:04:40.432Z,4.40
2018-09-06T20:09:35.245Z,4.63
2018-09-06T20:14:30.024Z,4.30
2018-09-06T20:19:24.872Z,4.77
2018-09-06T20:24:19.695Z,4.03
2018-09-06T20:29:14.565Z,5.03
2018-09-06T20:34:09.445Z,6.03
2018-09-06T20:39:05.497Z,4.30
2018-09-06T20:44:00.394Z,5.07
2018-09-06T20:48:55.351Z,5.33
2018-09-06T20:53:50.346Z,8.50
2018-09-06T20:58:45.195Z,5.70
2018-09-06T21:03:40.157Z,7.30
2018-09-06T21:08:35.102Z,5.10
2018-09-06T21:13:29.981Z,4.97
2018-09-06T21:18:24.952Z,5.93
2018-09-06T21:23:19.926Z,4.80
2018-09-06T21:28:14.865Z,4.63
2018-09-06T21:33:09.734Z,3.23
2018-09-06T21:38:04.625Z,3.77
2018-09-06T21:42:59.520Z,3.70
2018-09-06T21:47:54.393Z,4.00
2018-09-06T21:52:49.264Z,5.63
2018-09-06T21:57:44.129Z,5.00
2018-09-06T22:02:43.992Z,5.23
2018-09-06T22:07:39.041Z,6.00
2018-09-06T22:12:34.149Z,4.60
2018-09-06T22:17:29.308Z,7.57
2018-09-06T22:22:24.299Z,4.90
2018-09-06T22:27:19.442Z,6.27
2018-09-06T22:32:14.512Z,5.67
2018-09-06T22:37:09.098Z,5.53
2018-09-06T22:42:04.229Z,6.60
2018-09-06T22:46:59.245Z,5.87
2018-09-06T22:51:54.362Z,5.40
2018-09-06T22:56:49.531Z,6.37
2018-09-06T23:01:44.713Z,7.17
2018-09-06T23:06:39.643Z,5.50
2018-09-06T23:11:34.649Z,6.53
2018-09-06T23:16:29.626Z,6.17
2018-09-06T23:21:24.582Z,7.83
2018-09-06T23:26:19.603Z,7.43
2018-09-06T23:31:17.284Z,8.73
2018-09-06T23:36:12.133Z,6.73
2018-09-06T23:41:07.311Z,7.83
2018-09-06T23:46:02.330Z,8.53
2018-09-06T23:50:58.711Z,9.00
2018-09-06T23:55:53.941Z,7.87
